Tiempo atmosférico en la estación meteorológica de Fuente El Sol, Valladolid (755 m.)



Fecha
DESCASC
Temp. máxima en grados centígrados (hora)
DESCASC
Temp. mínima en grados centígrados (hora)
DESCASC
Temp. media en grados centígrados
DESCASC
Racha de viento máxima en m/sg (hora)
DESCASC
Velocidad máxima media en intervalos de 10 minutos(hora)
DESCASC
Precipitaciones diarias en mm
DESCASC
Precipitaciones de 00:00 a 06:00 en mm
DESCASC
Precipitaciones de 06:00 a 12:00 en mm
DESCASC
Precipitaciones de 12:00 a 18:00 en mm
DESCASC
Precipitaciones de 18:00 a 24:00 en mm
DESCASC
22-04-2019 18.8 (15:50) 2.3 (07:40) 10.5 12.22 (19:30) 8.61 (19:30) 0.4 0 0 0 0.4
21-04-2019 16.3 (15:00) 4.4 (05:10) 10.3 10.56 (13:00) 6.67 (12:20) 0 0 0 0 0
20-04-2019 21.9 (17:10) 8.3 (08:10) 15.1 15 (13:30) 9.72 (13:00) 0 0 0 0 0
19-04-2019 14.8 (14:50) 6.6 (07:30) 10.7 13.06 (22:00) 8.89 (22:40) 3.6 3.6 0 0 0
18-04-2019 13.2 (14:30) 7.7 (00:00) 10.4 7.22 (19:00) 5 (19:00) 1.8 0.8 0 0.4 0.6
17-04-2019 21 (14:00) 5.7 (00:00) 13.3 20.56 (20:40) 13.61 (20:30) 0 0 0 0 0
16-04-2019 21.3 (16:10) 1.2 (00:00) 11.2 11.94 (16:40) 7.78 (19:40) 0.2 0 0.2 0 0
15-04-2019 21.3 (14:50) 7.5 (00:00) 14.4 18.06 (15:40) 13.61 (15:40) 0.4 0 0 0 0.4
14-04-2019 21.9 (17:50) 9.5 (00:00) 15.7 6.11 (19:10) 4.17 (03:40) 0 0 0 0 0
13-04-2019 22 (19:10) 0.1 (00:00) 11.1 6.39 (16:50) 4.17 (19:40) 0 0 0 0 0
12-04-2019 17.6 (19:10) -1.7 (07:30) 8 7.5 (14:10) 4.17 (14:20) 0 0 0 0 0
11-04-2019 15.2 (18:40) 0.2 (00:00) 7.7 6.67 (18:50) 4.17 (18:50) 0 0 0 0 0
10-04-2019 12.8 (15:10) 4 (00:00) 8.4 11.11 (16:30) 7.78 (15:40) 7 0 0 4.8 2.2
09-04-2019 12.9 (17:10) 2.4 (00:00) 7.6 17.22 (12:40) 11.39 (12:20) 1.4 0 1.2 0.2 0
08-04-2019 14.6 (17:30) 5.4 (00:00) 10 12.22 (19:10) 8.89 (19:10) 0.6 0.2 0.2 0.2 0
07-04-2019 11.8 (14:20) 1.8 (00:00) 6.8 12.5 (16:50) 9.17 (16:50) 3 0 0 1.2 1.8
06-04-2019 9.2 (17:30) 2.4 (00:00) 5.8 21.67 (16:40) 15.83 (15:20) 0.2 0 0.2 0 0
05-04-2019 8.9 (19:10) 2.4 (00:00) 5.6 13.61 (20:40) 9.72 (15:50) 4 0.2 2.4 0.6 0.8
04-04-2019 12.6 (17:10) -4.5 (-00:0) 4.1 11.94 (17:20) 8.06 (20:00) 0 0 0 0 0
03-04-2019 12.8 (15:10) 1.3 (07:10) 7.1 11.39 (17:10) 7.5 (17:50) 0 0 0 0 0
02-04-2019 18.6 (16:40) 4.7 (00:00) 11.7 11.39 (17:30) 7.22 (19:30) 0.2 0 0.2 0 0
01-04-2019 19.8 (18:00) 0.6 (00:00) 10.2 6.11 (13:50) 3.89 (03:20) 0 0 0 0 0
31-03-2019 19.8 (16:20) 1.2 (00:00) 10.5 10.83 (17:00) 7.78 (17:00) 0 0 0 0 0
30-03-2019 21.1 (17:10) 2.1 (00:00) 11.6 7.5 (15:50) 5.28 (01:40) 0 0 0 0 0
29-03-2019 19.3 (16:50) 1 (00:00) 10.1 13.61 (10:40) 10.83 (10:40) 0 0 0 0 0
28-03-2019 20.2 (15:50) -3.7 (-00:0) 8.3 7.5 (16:00) 4.17 (11:40) 0 0 0 0 0
27-03-2019 19.9 (17:30) -3.8 (-00:0) 8 9.17 (18:10) 6.39 (19:30) 0 0 0 0 0
26-03-2019 20.3 (16:40) -4.4 (-00:0) 7.9 12.5 (17:00) 8.61 (17:10) 0 0 0 0 0
25-03-2019 17.2 (16:00) 0.5 (00:00) 8.9 10 (15:10) 6.94 (17:30) 0 0 0 0 0

Gráficas

Temp. máximas Temp. mínimas Temp. medias Precipitaciones Rachas de viento máximas Velocidades máximas media en intervalos de 10 minutos

Datos horarios

Fecha y hora oficial Temperatura (ºC) Velocidad del viento (km/h) Dirección del viento Racha (km/h) Dirección de racha Precipitación (mm) Presión (hPa) Tendencia (hPa) Humedad (%)
2019-04-23 23:00:00 4.3 17 Sur 28 Sur 0 -- -- 89
2019-04-23 22:00:00 5 21 Sudoeste 30 Sudoeste 0 -- -- 87
2019-04-23 21:00:00 5.4 20 Sudoeste 42 Sudoeste 0.2 -- -- 86
2019-04-23 20:00:00 6.6 28 Sudoeste 38 Sudoeste 0 -- -- 73
2019-04-23 19:00:00 7.8 26 Oeste 53 Sudoeste 0 -- -- 73
2019-04-23 18:00:00 9.1 29 Sudoeste 50 Sudoeste 0 -- -- 64
2019-04-23 17:00:00 11.1 39 Sudoeste 58 Sudoeste 0 -- -- 57
2019-04-23 16:00:00 11.8 31 Sudoeste 43 Oeste 0 -- -- 57
2019-04-23 15:00:00 12.5 21 Sudoeste 34 Sudoeste 0 -- -- 40
2019-04-23 14:00:00 11 19 Sudoeste 44 Sudoeste 0 -- -- 52
2019-04-23 13:00:00 10 23 Sudoeste 31 Sudoeste 0 -- -- 64
2019-04-23 12:00:00 7.7 18 Sudoeste 31 Sudoeste 0 -- -- 71
2019-04-23 11:00:00 7.1 22 Sudoeste 36 Sudoeste 0 -- -- 75
2019-04-23 10:00:00 6.8 21 Sudoeste 32 Sudoeste 0 -- -- 77
2019-04-23 09:00:00 5.8 16 Sudoeste 25 Sudoeste 0 -- -- 91
2019-04-23 08:00:00 5.8 6 Sudoeste 21 Sudoeste 0.4 -- -- 93
2019-04-23 07:00:00 6.4 13 Sudoeste 21 Sudoeste 0 -- -- 91
2019-04-23 06:00:00 6.8 15 Sudoeste 27 Sudoeste 0 -- -- 88
2019-04-23 05:00:00 7.7 18 Oeste 39 Sudoeste 0 -- -- 83
2019-04-23 04:00:00 10.6 12 Sudoeste 26 Sudoeste 0 -- -- 79
2019-04-23 03:00:00 10 7 Sudeste 14 Sur 0 -- -- 88
2019-04-23 02:00:00 10.1 12 Sur 41 Sur 0.4 -- -- 80
2019-04-23 01:00:00 11.8 12 Sudoeste 23 Sudoeste 0 -- -- 75
2019-04-23 00:00:00 11.9 10 Sudeste 15 Sur 0 -- -- 70
2019-04-22 23:00:00 12 8 Sur 21 Sudoeste 0 -- -- 69
2019-04-22 22:00:00 13.2 16 Sudoeste 24 Sur 0 -- -- 59
2019-04-22 21:00:00 12.8 8 Sudoeste 17 Oeste 0 -- -- 71
2019-04-22 20:00:00 12.9 19 Oeste 44 Sudoeste 0.4 -- -- 65
2019-04-22 19:00:00 17.5 18 Sudoeste 27 Sur 0 -- -- 42
2019-04-22 18:00:00 18.1 4 Oeste 21 Oeste 0 -- -- 37
2019-04-22 17:00:00 18.5 8 Oeste 17 Oeste 0 -- -- 39
2019-04-22 16:00:00 18.1 6 Oeste 16 Oeste 0 -- -- 39
2019-04-22 15:00:00 17.1 11 Oeste 24 Oeste 0 -- -- 42
2019-04-22 14:00:00 17.1 8 Noroeste 16 Este 0 -- -- 42
2019-04-22 13:00:00 16.1 5 Oeste 17 Sudoeste 0 -- -- 46
2019-04-22 12:00:00 15.4 5 Noroeste 14 Sudoeste 0 -- -- 52
2019-04-22 11:00:00 11.9 8 Sudoeste 15 Sudoeste 0 -- -- 67
2019-04-22 10:00:00 10 6 Sudoeste 10 Sudoeste 0 -- -- 75
2019-04-22 09:00:00 6.6 5 Sudoeste 8 Sudoeste 0 -- -- 89
2019-04-22 08:00:00 2.5 3 Sur 7 Sur 0 -- -- 95
2019-04-22 07:00:00 3.1 2 Sudoeste 4 Noroeste 0 -- -- 93
2019-04-22 06:00:00 3.5 4 Oeste 6 Nordeste 0 -- -- 94
2019-04-22 05:00:00 4.9 4 Nordeste 8 Norte 0 -- -- 88
2019-04-22 04:00:00 7 5 Norte 8 Norte 0 -- -- 83
2019-04-22 03:00:00 7.2 7 Noroeste 8 Noroeste 0 -- -- 87
2019-04-22 02:00:00 7.9 5 Noroeste 6 Noroeste 0 -- -- 84
2019-04-22 01:00:00 9.1 5 Norte 9 Norte 0 -- -- 73
2019-04-22 00:00:00 8.5 6 Noroeste 10 Nordeste 0 -- -- 79
2019-04-21 23:00:00 9.6 5 Nordeste 12 Nordeste 0 -- -- 69
2019-04-21 22:00:00 10.7 9 Nordeste 16 Nordeste 0 -- -- 63
2019-04-21 21:00:00 11.3 11 Nordeste 27 Nordeste 0 -- -- 61
2019-04-21 20:00:00 13.3 11 Nordeste 25 Nordeste 0 -- -- 55
2019-04-21 19:00:00 13.4 16 Nordeste 24 Nordeste 0 -- -- 54
2019-04-21 18:00:00 13.5 18 Nordeste 32 Nordeste 0 -- -- 52
2019-04-21 17:00:00 14.3 19 Nordeste 35 Nordeste 0 -- -- 50
2019-04-21 16:00:00 14.8 19 Norte 31 Nordeste 0 -- -- 51
2019-04-21 15:00:00 16.3 19 Norte 32 Nordeste 0 -- -- 46
2019-04-21 14:00:00 14.3 20 Nordeste 33 Nordeste 0 -- -- 48
2019-04-21 13:00:00 13.6 24 Nordeste 38 Nordeste 0 -- -- 54
2019-04-21 12:00:00 13.8 22 Nordeste 35 Norte 0 -- -- 50
2019-04-21 11:00:00 12.6 21 Nordeste 33 Nordeste 0 -- -- 59
2019-04-21 10:00:00 10.4 19 Nordeste 28 Nordeste 0 -- -- 65
2019-04-21 09:00:00 8 10 Norte 15 Norte 0 -- -- 79
2019-04-21 08:00:00 5.5 3 Norte 13 Norte 0 -- -- 89
2019-04-21 07:00:00 6.2 6 Norte 13 Norte 0 -- -- 88
2019-04-21 06:00:00 6.1 9 Norte 14 Norte 0 -- -- 86
2019-04-21 05:00:00 5.1 3 Noroeste 9 Norte 0 -- -- 90
2019-04-21 04:00:00 6.6 2 Noroeste 5 Nordeste 0 -- -- 82
2019-04-21 03:00:00 8.9 0 Calma 10 Noroeste 0 -- -- 74
2019-04-21 02:00:00 9.8 6 Este 15 Norte 0 -- -- 68
2019-04-21 01:00:00 10.5 7 Este 24 Nordeste 0 -- -- 65
2019-04-21 00:00:00 12.7 17 Norte 23 Nordeste 0 -- -- 56
2019-04-20 23:00:00 14.2 10 Norte 29 Norte 0 -- -- 52
2019-04-20 22:00:00 14.9 14 Norte 19 Norte 0 -- -- 54
2019-04-20 21:00:00 16.5 12 Norte 26 Norte 0 -- -- 48
2019-04-20 20:00:00 19.8 14 Norte 32 Norte 0 -- -- 39
2019-04-20 19:00:00 20.9 21 Norte 36 Nordeste 0 -- -- 36
2019-04-20 18:00:00 21.5 20 Nordeste 38 Nordeste 0 -- -- 35
2019-04-20 17:00:00 21.2 24 Nordeste 42 Nordeste 0 -- -- 32
2019-04-20 16:00:00 20.9 28 Nordeste 45 Nordeste 0 -- -- 33
2019-04-20 15:00:00 20.6 28 Nordeste 49 Nordeste 0 -- -- 33
2019-04-20 14:00:00 19.9 33 Nordeste 54 Nordeste 0 -- -- 33
2019-04-20 13:00:00 18.6 35 Nordeste 48 Nordeste 0 -- -- 36
2019-04-20 12:00:00 17.3 30 Nordeste 43 Nordeste 0 -- -- 42
2019-04-20 11:00:00 15.8 29 Nordeste 42 Nordeste 0 -- -- 46
2019-04-20 10:00:00 13.1 23 Norte 33 Nordeste 0 -- -- 62
2019-04-20 09:00:00 9.7 4 Nordeste 12 Norte 0 -- -- 78
2019-04-20 08:00:00 8.5 10 Norte 19 Norte 0 -- -- 82
2019-04-20 07:00:00 9.3 17 Norte 28 Norte 0 -- -- 74
2019-04-20 06:00:00 10.9 10 Nordeste 22 Norte 0 -- -- 66
2019-04-20 05:00:00 10 7 Norte 22 Nordeste 0 -- -- 70
2019-04-20 04:00:00 10.2 15 Nordeste 28 Nordeste 0 -- -- 70
2019-04-20 03:00:00 11 21 Nordeste 31 Nordeste 0 -- -- 67
2019-04-20 02:00:00 11.2 14 Nordeste 35 Nordeste 0 -- -- 66
2019-04-20 01:00:00 11.6 23 Nordeste 39 Nordeste 0 -- -- 66
2019-04-20 00:00:00 12.2 19 Nordeste 35 Nordeste 0 -- -- 68
2019-04-19 23:00:00 12.9 27 Nordeste 45 Nordeste 0 -- -- 64
2019-04-19 22:00:00 13.2 30 Nordeste 47 Nordeste 0 -- -- 67
2019-04-19 21:00:00 12 11 Norte 20 Norte 0 -- -- 78
2019-04-19 20:00:00 12.1 14 Norte 30 Nordeste 0 -- -- 79
2019-04-19 19:00:00 12 23 Nordeste 33 Nordeste 0 -- -- 78
2019-04-19 18:00:00 12.2 22 Nordeste 33 Nordeste 0 -- -- 75
2019-04-19 17:00:00 13.6 23 Nordeste 33 Nordeste 0 -- -- 69
2019-04-19 16:00:00 14.5 21 Nordeste 33 Nordeste 0 -- -- 61
2019-04-19 15:00:00 14.6 21 Nordeste 32 Nordeste 0 -- -- 62
2019-04-19 14:00:00 14 14 Nordeste 24 Este 0 -- -- 64
2019-04-19 13:00:00 13.2 16 Nordeste 27 Nordeste 0 -- -- 67
2019-04-19 12:00:00 11.9 13 Nordeste 22 Nordeste 0 -- -- 77
2019-04-19 11:00:00 10.7 11 Norte 15 Nordeste 0 -- -- 83
2019-04-19 10:00:00 8.9 7 Nordeste 10 Nordeste 0 -- -- 96
2019-04-19 09:00:00 7.8 9 Nordeste 13 Nordeste 0 -- -- 99
2019-04-19 08:00:00 7.2 11 Nordeste 19 Nordeste 0 -- -- 99
2019-04-19 07:00:00 7.9 4 Este 6 Este 0 -- -- 98
2019-04-19 06:00:00 8.3 5 Sudeste 9 Sudeste 0 -- -- 98
2019-04-19 05:00:00 8 6 Sur 9 Sur 0 -- -- 97
2019-04-19 04:00:00 8.5 5 Sur 7 Sudoeste 0 -- -- 98
2019-04-19 03:00:00 8.5 4 Sudoeste 10 Sudoeste 0.2 -- -- 98
2019-04-19 02:00:00 8.5 8 Sudoeste 13 Sudoeste 1.4 -- -- 98
2019-04-19 01:00:00 8.6 10 Sudoeste 17 Oeste 2 -- -- 97
2019-04-19 00:00:00 8.8 8 Oeste 10 Oeste 0.6 -- -- 96
2019-04-18 23:00:00 8.9 5 Oeste 8 Noroeste 0 -- -- 94
2019-04-18 22:00:00 9 4 Noroeste 12 Norte 0 -- -- 91
2019-04-18 21:00:00 9.9 10 Norte 17 Norte 0 -- -- 84
2019-04-18 20:00:00 10.5 13 Norte 21 Norte 0 -- -- 81
2019-04-18 19:00:00 11 18 Norte 26 Norte 0 -- -- 78
2019-04-18 18:00:00 11.6 14 Noroeste 20 Noroeste 0 -- -- 78
2019-04-18 17:00:00 12 11 Noroeste 19 Noroeste 0 -- -- 74
2019-04-18 16:00:00 10.9 6 Norte 23 Este 0.4 -- -- 78
2019-04-18 15:00:00 12.8 15 Nordeste 24 Nordeste 0 -- -- 69
2019-04-18 14:00:00 12.1 13 Nordeste 18 Nordeste 0 -- -- 66
2019-04-18 13:00:00 11.7 8 Norte 17 Nordeste 0 -- -- 72
2019-04-18 12:00:00 11.3 6 Nordeste 11 Nordeste 0 -- -- 75
2019-04-18 11:00:00 10.9 5 Noroeste 9 Noroeste 0 -- -- 78
2019-04-18 10:00:00 10 0 Calma 4 Norte 0 -- -- 82
2019-04-18 09:00:00 8.6 0 Calma 9 Este 0 -- -- 92
2019-04-18 08:00:00 7.9 6 Sudeste 8 Sur 0 -- -- 94
2019-04-18 07:00:00 7.7 3 Sudeste 5 Sur 0 -- -- 94
2019-04-18 06:00:00 8.1 2 Sudoeste 9 Sur 0 -- -- 92
2019-04-18 05:00:00 8.3 8 Sudoeste 13 Sudoeste 0 -- -- 92
2019-04-18 04:00:00 8.4 9 Sudoeste 15 Sudoeste 0 -- -- 92
2019-04-18 03:00:00 9.1 4 Sudoeste 8 Sur 0.2 -- -- 92
2019-04-18 02:00:00 9.5 4 Sudoeste 14 Sur 0.4 -- -- 89
2019-04-18 01:00:00 9.8 15 Sur 25 Sur 0.2 -- -- 83
2019-04-18 00:00:00 9.9 12 Sudoeste 37 Sudoeste 0 -- -- 79
2019-04-17 23:00:00 11.3 23 Sudoeste 44 Sudoeste 0 -- -- 72
2019-04-17 22:00:00 14.2 33 Sudoeste 54 Sur 0 -- -- 64
2019-04-17 21:00:00 16.7 40 Sudeste 74 Sudeste 0 -- -- 48
2019-04-17 20:00:00 17.4 34 Sudeste 64 Sudeste 0 -- -- 47
2019-04-17 19:00:00 18.5 40 Sur 60 Sudeste 0 -- -- 42
2019-04-17 18:00:00 19.4 24 Sur 42 Sudeste 0 -- -- 38
2019-04-17 17:00:00 19.7 34 Sudeste 59 Sudeste 0 -- -- 41
2019-04-17 16:00:00 19.4 25 Sudeste 40 Este 0 -- -- 40
2019-04-17 15:00:00 19.8 26 Sudeste 44 Este 0 -- -- 41
2019-04-17 14:00:00 21 24 Sudeste 41 Sur 0 -- -- 34
2019-04-17 13:00:00 19.4 29 Sudeste 60 Sudeste 0 -- -- 37
2019-04-17 12:00:00 17.5 44 Sudeste 59 Sudeste 0 -- -- 46
2019-04-17 11:00:00 13.9 22 Este 44 Este 0 -- -- 58
2019-04-17 10:00:00 12.1 19 Este 44 Este 0 -- -- 68
2019-04-17 09:00:00 11.5 21 Sudeste 55 Sudeste 0 -- -- 71
2019-04-17 08:00:00 11.2 21 Este 37 Este 0 -- -- 72
2019-04-17 07:00:00 11.8 26 Este 43 Sudeste 0 -- -- 68
2019-04-17 06:00:00 12.1 18 Este 35 Sudeste 0 -- -- 65
2019-04-17 05:00:00 12.8 21 Sudeste 40 Sudeste 0 -- -- 63
2019-04-17 04:00:00 12.3 15 Este 28 Este 0 -- -- 64
2019-04-17 03:00:00 11.1 17 Este 26 Este 0 -- -- 60
2019-04-17 02:00:00 5.7 13 Este 18 Este 0 -- -- 81
2019-04-17 01:00:00 7.9 3 Este 9 Sudeste 0 -- -- 73
2019-04-17 00:00:00 9.5 4 Este 13 Sudeste 0 -- -- 71
2019-04-16 23:00:00 12 6 Sur 24 Sur 0 -- -- 62
2019-04-16 22:00:00 14.1 15 Sudeste 21 Sudeste 0 -- -- 46
2019-04-16 21:00:00 16.4 18 Sudeste 37 Sudeste 0 -- -- 39
2019-04-16 20:00:00 18.2 24 Este 35 Este 0 -- -- 35
2019-04-16 19:00:00 19.9 26 Este 37 Este 0 -- -- 31
2019-04-16 18:00:00 20.1 25 Este 36 Este 0 -- -- 32
2019-04-16 17:00:00 20.6 16 Este 43 Este 0 -- -- 31
2019-04-16 16:00:00 20.9 18 Sudeste 30 Sudeste 0 -- -- 30
2019-04-16 15:00:00 19 7 Norte 24 Este 0 -- -- 37
2019-04-16 14:00:00 17.5 8 Este 26 Este 0 -- -- 40
2019-04-16 13:00:00 15 12 Este 20 Nordeste 0 -- -- 57
2019-04-16 12:00:00 13.3 8 Este 14 Este 0 -- -- 64
2019-04-16 11:00:00 12.2 5 Nordeste 8 Este 0 -- -- 70
2019-04-16 10:00:00 10.5 3 Nordeste 5 Nordeste 0 -- -- 78
2019-04-16 09:00:00 7.2 0 Calma 6 Sudeste 0 -- -- 89
2019-04-16 08:00:00 1.2 7 Este 10 Este 0.2 -- -- 98
2019-04-16 07:00:00 1.4 4 Sur 9 Sur 0 -- -- 97
2019-04-16 06:00:00 2.5 5 Sur 11 Sur 0 -- -- 96
2019-04-16 05:00:00 3.7 4 Sur 12 Sudoeste 0 -- -- 97
2019-04-16 04:00:00 4.4 9 Sudoeste 15 Sudoeste 0 -- -- 96
2019-04-16 03:00:00 5 8 Sudoeste 13 Sudoeste 0 -- -- 95
2019-04-16 02:00:00 5.6 6 Sudoeste 13 Sudoeste 0 -- -- 96
2019-04-16 01:00:00 6.4 8 Sudoeste 16 Sudoeste 0 -- -- 94
2019-04-16 00:00:00 7.6 14 Sudoeste 17 Sudoeste 0 -- -- 92
2019-04-15 23:00:00 8.5 9 Sudoeste 15 Sudoeste 0 -- -- 93
2019-04-15 22:00:00 9.4 11 Sudoeste 35 Sudoeste 0.2 -- -- 91
2019-04-15 21:00:00 10.4 18 Sudoeste 31 Sudoeste 0 -- -- 85
2019-04-15 20:00:00 10.9 17 Sudoeste 41 Sudoeste 0.2 -- -- 83
2019-04-15 19:00:00 11.5 36 Sudoeste 59 Oeste 0 -- -- 70
2019-04-15 18:00:00 14.1 45 Oeste 63 Oeste 0 -- -- 52
2019-04-15 17:00:00 18.6 40 Sudoeste 59 Sudoeste 0 -- -- 48
2019-04-15 16:00:00 20.5 47 Sudoeste 65 Sudoeste 0 -- -- 35
2019-04-15 15:00:00 20.1 41 Sudoeste 58 Sudoeste 0 -- -- 48
2019-04-15 14:00:00 20.7 43 Sudoeste 58 Sudoeste 0 -- -- 55
2019-04-15 13:00:00 20.8 17 Sur 31 Sudeste 0 -- -- 51
2019-04-15 12:00:00 18.5 24 Sudeste 33 Sudeste 0 -- -- 63
2019-04-15 11:00:00 16.2 19 Sudeste 28 Sudeste 0 -- -- 70
2019-04-15 10:00:00 14.5 16 Sudeste 21 Sudeste 0 -- -- 76
2019-04-15 09:00:00 12.4 16 Este 21 Este 0 -- -- 82
2019-04-15 08:00:00 10.5 11 Sudeste 18 Sudeste 0 -- -- 89
2019-04-15 07:00:00 9.9 8 Sudeste 10 Sur 0 -- -- 94
2019-04-15 06:00:00 8.5 6 Sudeste 8 Sur 0 -- -- 94
2019-04-15 05:00:00 8.4 4 Sur 6 Sur 0 -- -- 94
2019-04-15 04:00:00 9.9 3 Sur 12 Sur 0 -- -- 89
2019-04-15 03:00:00 10 4 Sur 8 Sudoeste 0 -- -- 88
2019-04-15 02:00:00 10.7 4 Sur 9 Este 0 -- -- 84
2019-04-15 01:00:00 11.6 8 Este 9 Este 0 -- -- 85
2019-04-15 00:00:00 10.8 4 Sudeste 6 Sur 0 -- -- 86
2019-04-14 23:00:00 11.3 5 Sur 6 Sur 0 -- -- 83
2019-04-14 22:00:00 12.4 4 Sudoeste 5 Sudoeste 0 -- -- 80
2019-04-14 21:00:00 16.3 4 Sudoeste 17 Sudoeste 0 -- -- 66
2019-04-14 20:00:00 19.1 11 Sudoeste 22 Sudoeste 0 -- -- 56
2019-04-14 19:00:00 20.9 14 Sudoeste 21 Sudoeste 0 -- -- 50
2019-04-14 18:00:00 21.3 6 Noroeste 16 Sudoeste 0 -- -- 47
2019-04-14 17:00:00 21.4 6 Oeste 21 Oeste 0 -- -- 47
2019-04-14 16:00:00 20 9 Sudoeste 16 Sudoeste 0 -- -- 50
2019-04-14 15:00:00 19.6 5 Oeste 21 Sudoeste 0 -- -- 52
2019-04-14 14:00:00 17.8 8 Sudoeste 20 Sudoeste 0 -- -- 59
2019-04-14 13:00:00 17.3 11 Sudoeste 20 Oeste 0 -- -- 63
2019-04-14 12:00:00 15.7 8 Sudoeste 18 Sudoeste 0 -- -- 71
2019-04-14 11:00:00 13.8 15 Sudoeste 21 Sudoeste 0 -- -- 77
2019-04-14 10:00:00 13.2 15 Sudoeste 22 Sudoeste 0 -- -- 82
2019-04-14 09:00:00 10.5 8 Sur 13 Sur 0 -- -- 94
2019-04-14 08:00:00 9.7 9 Sur 15 Sudoeste 0 -- -- 95
2019-04-14 07:00:00 10.5 13 Sudoeste 17 Sudoeste 0 -- -- 92
2019-04-14 06:00:00 10.2 13 Sur 20 Sur 0 -- -- 91
2019-04-14 05:00:00 11.2 14 Sudoeste 21 Sudoeste 0 -- -- 87
2019-04-14 04:00:00 11 13 Sudoeste 21 Sudoeste 0 -- -- 83
2019-04-14 03:00:00 11.4 13 Sudoeste 17 Sudoeste 0 -- -- 77
2019-04-14 02:00:00 11 8 Sudoeste 15 Sudoeste 0 -- -- 75
2019-04-14 01:00:00 12.6 12 Sudoeste 14 Sudoeste 0 -- -- 66
2019-04-14 00:00:00 12.8 11 Sudoeste 15 Sudoeste 0 -- -- 64
2019-04-13 23:00:00 11.4 11 Sudoeste 13 Sudoeste 0 -- -- 65
2019-04-13 22:00:00 10.5 12 Sudoeste 13 Sudoeste 0 -- -- 63
2019-04-13 21:00:00 13.7 9 Oeste 17 Sudoeste 0 -- -- 48
2019-04-13 20:00:00 18.3 14 Sudoeste 20 Sudoeste 0 -- -- 32
2019-04-13 19:00:00 21.7 5 Oeste 19 Sur 0 -- -- 24
2019-04-13 18:00:00 21.3 5 Sudoeste 16 Oeste 0 -- -- 20
2019-04-13 17:00:00 20.5 9 Sudoeste 23 Sudoeste 0 -- -- 25
2019-04-13 16:00:00 20.6 4 Norte 15 Norte 0 -- -- 25
2019-04-13 15:00:00 18.8 7 Noroeste 13 Sudeste 0 -- -- 27
2019-04-13 14:00:00 17.9 6 Norte 17 Nordeste 0 -- -- 32
2019-04-13 13:00:00 16.6 6 Nordeste 14 Nordeste 0 -- -- 36
2019-04-13 12:00:00 16.2 4 Sudeste 10 Este 0 -- -- 39
2019-04-13 11:00:00 14.6 3 Sudeste 6 Este 0 -- -- 47
2019-04-13 10:00:00 13.2 0 Calma 3 Sudoeste 0 -- -- 51
2019-04-13 09:00:00 4.9 2 Sudeste 5 Este 0 -- -- 80
2019-04-13 08:00:00 0.6 4 Sudeste 8 Sudeste 0 -- -- 91
2019-04-13 07:00:00 0.8 4 Este 6 Sudeste 0 -- -- 91
2019-04-13 06:00:00 1.3 4 Sur 8 Sudeste 0 -- -- 91
2019-04-13 05:00:00 0.1 5 Sudeste 8 Sudeste 0 -- -- 92
2019-04-13 04:00:00 1.1 4 Sur 5 Sur 0 -- -- 90
2019-04-13 03:00:00 1.4 0 Calma 4 Sur 0 -- -- 89
2019-04-13 02:00:00 1.9 4 Sudoeste 7 Sur 0 -- -- 87
2019-04-13 01:00:00 3.2 4 Sudoeste 6 Sudeste 0 -- -- 80
2019-04-13 00:00:00 5 4 Sudeste 6 Sudeste 0 -- -- 73
2019-04-12 23:00:00 6.3 4 Nordeste 7 Norte 0 -- -- 68
2019-04-12 22:00:00 8.1 4 Norte 8 Norte 0 -- -- 65
2019-04-12 21:00:00 11.8 5 Norte 9 Noroeste 0 -- -- 44
2019-04-12 20:00:00 15.9 5 Noroeste 13 Noroeste 0 -- -- 40
2019-04-12 19:00:00 17.5 6 Noroeste 18 Oeste 0 -- -- 34
2019-04-12 18:00:00 17.3 11 Oeste 22 Noroeste 0 -- -- 32
2019-04-12 17:00:00 16.9 9 Oeste 23 Noroeste 0 -- -- 37
2019-04-12 16:00:00 15.8 9 Noroeste 22 Noroeste 0 -- -- 40
2019-04-12 15:00:00 14.8 7 Noroeste 27 Noroeste 0 -- -- 47
2019-04-12 14:00:00 12.8 12 Noroeste 19 Norte 0 -- -- 50
2019-04-12 13:00:00 11.9 9 Norte 16 Noroeste 0 -- -- 54
2019-04-12 12:00:00 11.4 5 Noroeste 12 Norte 0 -- -- 61
2019-04-12 11:00:00 9.7 3 Nordeste 10 Nordeste 0 -- -- 71
2019-04-12 10:00:00 6.2 5 Nordeste 7 Nordeste 0 -- -- 82
2019-04-12 09:00:00 4 0 Calma 3 Sur 0 -- -- 89
2019-04-12 08:00:00 -1.3 2 Sudeste 3 Este 0 -- -- 98
2019-04-12 07:00:00 -1.5 2 Sudeste 5 Oeste 0 -- -- 98
2019-04-12 06:00:00 -1.2 5 Oeste 6 Sudoeste 0 -- -- 98
2019-04-12 05:00:00 -0.8 3 Sudoeste 5 Sudoeste 0 -- -- 97
2019-04-12 04:00:00 -0.2 0 Calma 4 Sudoeste 0 -- -- 97
2019-04-12 03:00:00 0.4 0 Calma 4 Sur 0 -- -- 96
2019-04-12 02:00:00 2.1 2 Nordeste 14 Noroeste 0 -- -- 94
2019-04-12 01:00:00 2.9 5 Norte 15 Nordeste 0 -- -- 87
2019-04-12 00:00:00 5.3 12 Nordeste 19 Nordeste 0 -- -- 80
2019-04-11 23:00:00 4.5 4 Oeste 12 Oeste 0 -- -- 85
2019-04-11 22:00:00 6.6 6 Noroeste 9 Noroeste 0 -- -- 75
2019-04-11 21:00:00 9.5 7 Noroeste 17 Noroeste 0 -- -- 66
2019-04-11 20:00:00 12.7 10 Noroeste 20 Noroeste 0 -- -- 47
2019-04-11 19:00:00 12.9 13 Noroeste 24 Noroeste 0 -- -- 43
2019-04-11 18:00:00 13.6 9 Norte 18 Noroeste 0 -- -- 39
2019-04-11 17:00:00 14.2 11 Noroeste 21 Oeste 0 -- -- 40
2019-04-11 16:00:00 13.6 11 Norte 19 Noroeste 0 -- -- 41
2019-04-11 15:00:00 13.3 9 Oeste 19 Noroeste 0 -- -- 47
2019-04-11 14:00:00 11.6 4 Noroeste 14 Oeste 0 -- -- 55
2019-04-11 13:00:00 10.7 5 Noroeste 11 Sudoeste 0 -- -- 59
2019-04-11 12:00:00 10 6 Este 13 Este 0 -- -- 64
2019-04-11 11:00:00 9.1 6 Este 11 Este 0 -- -- 70
2019-04-11 10:00:00 8.2 3 Sur 4 Sur 0 -- -- 78
2019-04-11 09:00:00 4.8 2 Sudeste 3 Este 0 -- -- 91
2019-04-11 08:00:00 0.2 2 Sudoeste 3 Sudoeste 0 -- -- 99
2019-04-11 07:00:00 1.7 0 Calma 5 Oeste 0 -- -- 99
2019-04-11 06:00:00 1.7 3 Sur 8 Sur 0 -- -- 99
2019-04-11 05:00:00 1.3 4 Sudoeste 5 Sur 0 -- -- 98
2019-04-11 04:00:00 1.2 5 Sudoeste 5 Sudoeste 0 -- -- 98
2019-04-11 03:00:00 2 2 Oeste 7 Sudoeste 0 -- -- 96
2019-04-11 02:00:00 3.8 5 Sudoeste 9 Sudoeste 0 -- -- 95
2019-04-11 01:00:00 4.8 5 Sudeste 10 Este 0 -- -- 96
2019-04-11 00:00:00 4 6 Sudoeste 13 Oeste 0 -- -- 94
2019-04-10 23:00:00 4.6 11 Sudoeste 21 Sudoeste 0 -- -- 91
2019-04-10 22:00:00 5.7 17 Sudoeste 24 Sudoeste 0 -- -- 90
2019-04-10 21:00:00 6.9 14 Sudoeste 22 Sudoeste 0 -- -- 87
2019-04-10 20:00:00 9.1 6 Sur 9 Sur 0.4 -- -- 82
2019-04-10 19:00:00 8.1 4 Sur 27 Noroeste 1.8 -- -- 82
2019-04-10 18:00:00 8.3 21 Noroeste 33 Oeste 4.2 -- -- 81
2019-04-10 17:00:00 10.8 18 Noroeste 40 Noroeste 0 -- -- 62
2019-04-10 16:00:00 9.7 17 Noroeste 40 Oeste 0.4 -- -- 65
2019-04-10 15:00:00 10.9 13 Noroeste 32 Oeste 0.2 -- -- 61
2019-04-10 14:00:00 11.8 18 Noroeste 29 Oeste 0 -- -- 56
2019-04-10 13:00:00 10.4 16 Oeste 30 Oeste 0 -- -- 63
2019-04-10 12:00:00 8.7 19 Oeste 35 Sudoeste 0 -- -- 68
2019-04-10 11:00:00 7.4 27 Sudoeste 35 Oeste 0 -- -- 80
2019-04-10 10:00:00 6 19 Sudoeste 28 Sudoeste 0 -- -- 87
2019-04-10 09:00:00 4.6 17 Sudoeste 27 Sudoeste 0 -- -- 92
2019-04-10 08:00:00 4.1 20 Sudoeste 35 Sudoeste 0 -- -- 93
2019-04-10 07:00:00 4.5 21 Sudoeste 30 Sudoeste 0 -- -- 93
2019-04-10 06:00:00 4.4 21 Sudoeste 33 Sudoeste 0 -- -- 93
2019-04-10 05:00:00 4.3 17 Sudoeste 34 Sudoeste 0 -- -- 91
2019-04-10 04:00:00 4.5 19 Sudoeste 32 Sudoeste 0 -- -- 92
2019-04-10 03:00:00 4.3 19 Sudoeste 30 Sudoeste 0 -- -- 91
2019-04-10 02:00:00 5.2 21 Sudoeste 32 Sudoeste 0 -- -- 88
2019-04-10 01:00:00 5.8 21 Sudoeste 33 Sudoeste 0 -- -- 88
2019-04-10 00:00:00 6.5 19 Sudoeste 29 Sudoeste 0 -- -- 86
2019-04-09 23:00:00 6.1 17 Sudoeste 34 Sudoeste 0 -- -- 86
2019-04-09 22:00:00 7.2 23 Oeste 49 Sudoeste 0 -- -- 80
2019-04-09 21:00:00 8.3 18 Sudoeste 34 Sudoeste 0 -- -- 71
2019-04-09 20:00:00 10.1 27 Sudoeste 46 Sudoeste 0 -- -- 58
2019-04-09 19:00:00 11.8 33 Oeste 44 Sudoeste 0 -- -- 48
2019-04-09 18:00:00 10.6 21 Oeste 54 Sudoeste 0 -- -- 62
2019-04-09 17:00:00 12.5 27 Oeste 51 Sudoeste 0 -- -- 52
2019-04-09 16:00:00 10.8 30 Oeste 48 Sudoeste 0 -- -- 55
2019-04-09 15:00:00 9.8 33 Sudoeste 43 Oeste 0 -- -- 67
2019-04-09 14:00:00 6.7 32 Sudoeste 51 Sudoeste 0 -- -- 84
2019-04-09 13:00:00 6.8 36 Sudoeste 62 Sudoeste 0.2 -- -- 83
2019-04-09 12:00:00 6.3 28 Sudoeste 43 Sur 1.2 -- -- 90
2019-04-09 11:00:00 7.2 26 Sudoeste 42 Sudoeste 0 -- -- 85
2019-04-09 10:00:00 6.8 19 Sur 31 Sur 0 -- -- 87
2019-04-09 09:00:00 6.7 17 Sur 28 Sur 0 -- -- 87
2019-04-09 08:00:00 5 15 Sur 33 Sur 0 -- -- 92
2019-04-09 07:00:00 4.8 17 Sur 28 Sur 0 -- -- 89
2019-04-09 06:00:00 4.5 17 Sur 26 Sur 0 -- -- 92
2019-04-09 05:00:00 2.6 6 Sur 15 Sur 0 -- -- 97
2019-04-09 04:00:00 3.2 11 Sur 17 Sur 0 -- -- 94
2019-04-09 03:00:00 3.6 12 Sur 21 Sur 0 -- -- 91
2019-04-09 02:00:00 4.7 16 Sur 26 Sudoeste 0 -- -- 87
2019-04-09 01:00:00 4.8 16 Sudoeste 24 Sudoeste 0 -- -- 90
2019-04-09 00:00:00 5.4 15 Sur 26 Sur 0 -- -- 88
2019-04-08 23:00:00 5.7 14 Sur 18 Sur 0 -- -- 87
2019-04-08 22:00:00 7 11 Sur 26 Sur 0 -- -- 81
2019-04-08 21:00:00 8.7 14 Sudoeste 35 Sudoeste 0 -- -- 71
2019-04-08 20:00:00 10.4 27 Oeste 44 Oeste 0 -- -- 57
2019-04-08 19:00:00 13.6 24 Oeste 33 Oeste 0 -- -- 47
2019-04-08 18:00:00 13.9 18 Oeste 38 Sudoeste 0 -- -- 46
2019-04-08 17:00:00 13.4 23 Sudoeste 40 Sudoeste 0 -- -- 42
2019-04-08 16:00:00 12.2 21 Sudoeste 37 Sudoeste 0.2 -- -- 58
2019-04-08 15:00:00 11.9 23 Sudoeste 39 Sudoeste 0 -- -- 62
2019-04-08 14:00:00 11 21 Sudoeste 39 Sudoeste 0 -- -- 67
2019-04-08 13:00:00 10.9 17 Sudoeste 27 Sudoeste 0 -- -- 68
2019-04-08 12:00:00 10 17 Oeste 30 Oeste 0 -- -- 73
2019-04-08 11:00:00 9.6 23 Oeste 32 Oeste 0 -- -- 73
2019-04-08 10:00:00 8.9 14 Sudoeste 27 Sudoeste 0 -- -- 83
2019-04-08 09:00:00 7.6 16 Sudoeste 24 Oeste 0 -- -- 92
2019-04-08 08:00:00 7.6 11 Sudoeste 21 Sudoeste 0 -- -- 94
2019-04-08 07:00:00 8.3 14 Sudoeste 37 Sudoeste 0.2 -- -- 95
2019-04-08 06:00:00 8.9 23 Sudoeste 31 Sudoeste 0 -- -- 90
2019-04-08 05:00:00 8.6 16 Sur 22 Sur 0.2 -- -- 91
2019-04-08 04:00:00 8.3 12 Sur 17 Sur 0 -- -- 91
2019-04-08 03:00:00 7.8 11 Sur 17 Sur 0 -- -- 93
2019-04-08 02:00:00 7.9 12 Sur 17 Sur 0 -- -- 93
2019-04-08 01:00:00 8 13 Sur 22 Sur 0 -- -- 94
2019-04-08 00:00:00 7.9 11 Sur 17 Sur 0 -- -- 94
2019-04-07 23:00:00 6.7 9 Sudeste 14 Sudeste 0 -- -- 94
2019-04-07 22:00:00 6.5 10 Sudeste 23 Sudeste 0.4 -- -- 93
2019-04-07 21:00:00 6.9 10 Este 15 Sudeste 0 -- -- 90
2019-04-07 20:00:00 7 10 Sur 20 Sur 0.6 -- -- 87
2019-04-07 19:00:00 7.2 6 Sur 15 Sudoeste 0.8 -- -- 88
2019-04-07 18:00:00 7.2 8 Sur 33 Sur 1.2 -- -- 87
2019-04-07 17:00:00 8 26 Sudoeste 45 Sudoeste 0 -- -- 75
2019-04-07 16:00:00 10.5 25 Sudoeste 37 Sur 0 -- -- 57
2019-04-07 15:00:00 11 19 Sudoeste 32 Oeste 0 -- -- 50
2019-04-07 14:00:00 10.2 19 Sudoeste 32 Oeste 0 -- -- 53
2019-04-07 13:00:00 9.4 13 Sudoeste 28 Oeste 0 -- -- 58
2019-04-07 12:00:00 8.6 17 Sudoeste 30 Sudoeste 0 -- -- 63
2019-04-07 11:00:00 7.3 24 Sudoeste 35 Sudoeste 0 -- -- 68
2019-04-07 10:00:00 5.5 23 Sudoeste 32 Sudoeste 0 -- -- 79
2019-04-07 09:00:00 3.9 14 Sudoeste 21 Sudoeste 0 -- -- 89
2019-04-07 08:00:00 1.8 16 Sudoeste 25 Sudoeste 0 -- -- 95
2019-04-07 07:00:00 2 19 Sudoeste 28 Sudoeste 0 -- -- 94
2019-04-07 06:00:00 2.4 15 Sudoeste 29 Sudoeste 0 -- -- 93
2019-04-07 05:00:00 2.6 20 Sudoeste 35 Sudoeste 0 -- -- 93
2019-04-07 04:00:00 3.5 22 Sudoeste 35 Sudoeste 0 -- -- 91
2019-04-07 03:00:00 3.6 18 Sudoeste 33 Sudoeste 0 -- -- 93
2019-04-07 02:00:00 4.1 23 Sudoeste 33 Sudoeste 0 -- -- 89
2019-04-07 01:00:00 4.5 26 Sudoeste 35 Sudoeste 0 -- -- 84
2019-04-07 00:00:00 3.6 17 Sudoeste 35 Sudoeste 0 -- -- 87
2019-04-06 23:00:00 3.7 26 Sudoeste 42 Sudoeste 0 -- -- 86
2019-04-06 22:00:00 5.1 27 Sudoeste 45 Sudoeste 0 -- -- 78
2019-04-06 21:00:00 5.9 29 Sudoeste 57 Sudoeste 0 -- -- 71
2019-04-06 20:00:00 8.3 36 Oeste 59 Sudoeste 0 -- -- 55
2019-04-06 19:00:00 8.5 35 Sudoeste 53 Sudoeste 0 -- -- 60
2019-04-06 18:00:00 9.2 37 Oeste 71 Sudoeste 0 -- -- 56
2019-04-06 17:00:00 8.7 44 Oeste 78 Sudoeste 0 -- -- 63
2019-04-06 16:00:00 7.2 48 Sudoeste 77 Sudoeste 0 -- -- 76
2019-04-06 15:00:00 8 46 Sudoeste 75 Sudoeste 0 -- -- 69
2019-04-06 14:00:00 7.4 44 Sudoeste 69 Sudoeste 0 -- -- 68
2019-04-06 13:00:00 6.6 38 Sudoeste 62 Sudoeste 0 -- -- 75
2019-04-06 12:00:00 6 37 Sudoeste 60 Sudoeste 0 -- -- 74
2019-04-06 11:00:00 5.5 42 Sudoeste 53 Sudoeste 0 -- -- 75
2019-04-06 10:00:00 3.3 25 Sur 39 Sur 0 -- -- 90
2019-04-06 09:00:00 3.2 23 Sur 32 Sudoeste 0 -- -- 88
2019-04-06 08:00:00 2.8 17 Sudoeste 35 Sudoeste 0.2 -- -- 87
2019-04-06 07:00:00 2.7 13 Sur 27 Sur 0 -- -- 89
2019-04-06 06:00:00 2.7 14 Sudoeste 23 Sudoeste 0 -- -- 89
2019-04-06 05:00:00 2.4 15 Sudoeste 30 Sudoeste 0 -- -- 90
2019-04-06 04:00:00 2.6 22 Sudoeste 35 Sudoeste 0 -- -- 90
2019-04-06 03:00:00 2.8 22 Sudoeste 33 Sudoeste 0 -- -- 90
2019-04-06 02:00:00 3 21 Sudoeste 32 Sudoeste 0 -- -- 91
2019-04-06 01:00:00 3.4 20 Sudoeste 33 Sudoeste 0 -- -- 89
2019-04-06 00:00:00 2.5 13 Sudoeste 27 Sur 0 -- -- 93
2019-04-05 23:00:00 2.7 17 Sudoeste 38 Sudoeste 0 -- -- 91
2019-04-05 22:00:00 4.2 29 Sudoeste 39 Sudoeste 0 -- -- 83
2019-04-05 21:00:00 4.1 15 Sudoeste 49 Sudoeste 0 -- -- 83
2019-04-05 20:00:00 6.6 19 Sudoeste 35 Sudoeste 0 -- -- 67
2019-04-05 19:00:00 8.8 22 Sudoeste 30 Sudoeste 0.8 -- -- 66
2019-04-05 18:00:00 6 21 Sudoeste 28 Sur 0 -- -- 79
2019-04-05 17:00:00 4.6 20 Sudoeste 39 Oeste 0.4 -- -- 84
2019-04-05 16:00:00 4.3 32 Oeste 46 Sudoeste 0 -- -- 86
2019-04-05 15:00:00 7.9 14 Sur 23 Sur 0.2 -- -- 70
2019-04-05 14:00:00 6.5 10 Sur 19 Sur 0 -- -- 78
2019-04-05 13:00:00 4.8 10 Sur 22 Sudoeste 0 -- -- 88
2019-04-05 12:00:00 3.8 9 Sudoeste 21 Sur 0.4 -- -- 89
2019-04-05 11:00:00 3.7 14 Sudoeste 28 Sudoeste 0.2 -- -- 87
2019-04-05 10:00:00 3.7 18 Sudoeste 25 Sudoeste 0 -- -- 88
2019-04-05 09:00:00 2.5 8 Sudoeste 27 Sudoeste 1 -- -- 95
2019-04-05 08:00:00 3.1 21 Oeste 48 Sudoeste 0.8 -- -- 93
2019-04-05 07:00:00 5.1 18 Sudoeste 29 Sudoeste 0 -- -- 83
2019-04-05 06:00:00 4.7 10 Sudoeste 23 Sur 0 -- -- 85
2019-04-05 05:00:00 4.8 17 Sur 28 Sur 0 -- -- 83
2019-04-05 04:00:00 4.9 21 Sur 31 Sur 0.2 -- -- 85
2019-04-05 03:00:00 4.8 15 Sur 23 Sudoeste 0 -- -- 86
2019-04-05 02:00:00 5 12 Sur 23 Sur 0 -- -- 81
2019-04-05 01:00:00 5.3 18 Sur 27 Sur 0 -- -- 76
2019-04-05 00:00:00 5.2 18 Sur 27 Sur 0 -- -- 77
2019-04-04 23:00:00 5.5 13 Sur 24 Sur 0 -- -- 80
2019-04-04 22:00:00 5.9 16 Oeste 32 Oeste 0 -- -- 76
2019-04-04 21:00:00 7.5 23 Oeste 38 Oeste 0 -- -- 57
2019-04-04 20:00:00 9.1 29 Oeste 38 Oeste 0 -- -- 45
2019-04-04 19:00:00 10.5 25 Oeste 36 Oeste 0 -- -- 35
2019-04-04 18:00:00 11.5 21 Oeste 43 Oeste 0 -- -- 32
2019-04-04 17:00:00 12 21 Sudoeste 36 Sudoeste 0 -- -- 32
2019-04-04 16:00:00 11.6 18 Sudoeste 34 Sudoeste 0 -- -- 33
2019-04-04 15:00:00 9.7 18 Sudoeste 34 Sudoeste 0 -- -- 38
2019-04-04 14:00:00 8.9 16 Sudoeste 32 Sudoeste 0 -- -- 42
2019-04-04 13:00:00 8.5 14 Sur 26 Sudoeste 0 -- -- 40
2019-04-04 12:00:00 7.6 10 Sudoeste 22 Sudoeste 0 -- -- 44
2019-04-04 11:00:00 5.1 16 Sudoeste 26 Sudoeste 0 -- -- 56
2019-04-04 10:00:00 3.1 19 Sudoeste 25 Sudoeste 0 -- -- 65
2019-04-04 09:00:00 -0.5 12 Sudoeste 20 Sudoeste 0 -- -- 80
2019-04-04 08:00:00 -3 11 Sur 16 Sudoeste 0 -- -- 85
2019-04-04 07:00:00 -2.9 10 Sur 16 Sur 0 -- -- 85
2019-04-04 06:00:00 -4.5 3 Sudeste 9 Sur 0 -- -- 88
2019-04-04 05:00:00 -3.4 5 Sur 9 Sur 0 -- -- 84
2019-04-04 04:00:00 -2.6 4 Sur 12 Sudoeste 0 -- -- 84
2019-04-04 03:00:00 -1.7 9 Oeste 12 Oeste 0 -- -- 80
2019-04-04 02:00:00 -1.3 0 Calma 10 Oeste 0 -- -- 77
2019-04-04 01:00:00 0.5 5 Sudoeste 20 Noroeste 0 -- -- 70
2019-04-04 00:00:00 2.3 11 Noroeste 26 Noroeste 0 -- -- 61
2019-04-03 23:00:00 3.7 16 Noroeste 21 Noroeste 0 -- -- 54
2019-04-03 22:00:00 5.1 14 Noroeste 27 Noroeste 0 -- -- 47
2019-04-03 21:00:00 7 19 Noroeste 32 Noroeste 0 -- -- 42
2019-04-03 20:00:00 9 19 Noroeste 36 Noroeste 0 -- -- 41
2019-04-03 19:00:00 10.4 25 Noroeste 36 Noroeste 0 -- -- 33
2019-04-03 18:00:00 10.9 23 Noroeste 41 Oeste 0 -- -- 33
2019-04-03 17:00:00 11.4 19 Oeste 36 Oeste 0 -- -- 32
2019-04-03 16:00:00 11.7 22 Oeste 35 Noroeste 0 -- -- 38
2019-04-03 15:00:00 12.6 23 Oeste 40 Oeste 0 -- -- 37
2019-04-03 14:00:00 10.9 21 Oeste 35 Noroeste 0 -- -- 39
2019-04-03 13:00:00 10.8 18 Oeste 28 Oeste 0 -- -- 44
2019-04-03 12:00:00 7.3 17 Noroeste 24 Noroeste 0 -- -- 63
2019-04-03 11:00:00 6.2 19 Oeste 26 Noroeste 0 -- -- 70
2019-04-03 10:00:00 6.4 17 Oeste 24 Oeste 0 -- -- 74
2019-04-03 09:00:00 4.7 8 Sudoeste 10 Sudoeste 0 -- -- 83
2019-04-03 08:00:00 3 4 Sudoeste 13 Sudoeste 0 -- -- 86
2019-04-03 07:00:00 1.9 12 Sudoeste 14 Sudoeste 0 -- -- 86
2019-04-03 06:00:00 1.9 11 Sudoeste 16 Sudoeste 0 -- -- 82
2019-04-03 05:00:00 3.2 10 Sudoeste 14 Sudoeste 0 -- -- 75
2019-04-03 04:00:00 4 11 Sudoeste 15 Sudoeste 0 -- -- 70
2019-04-03 03:00:00 4.5 14 Sudoeste 15 Sudoeste 0 -- -- 67
2019-04-03 02:00:00 4.9 13 Sudoeste 16 Oeste 0 -- -- 66
2019-04-03 01:00:00 4.8 9 Sudoeste 19 Oeste 0 -- -- 70
2019-04-03 00:00:00 6.4 10 Oeste 19 Oeste 0 -- -- 60
2019-04-02 23:00:00 9.9 16 Sudoeste 24 Sudoeste 0 -- -- 43
2019-04-02 22:00:00 10.8 17 Sudoeste 24 Sudoeste 0 -- -- 41
2019-04-02 21:00:00 12.1 14 Sudoeste 29 Sudoeste 0 -- -- 44
2019-04-02 20:00:00 16 19 Oeste 37 Oeste 0 -- -- 32
2019-04-02 19:00:00 17.6 23 Oeste 34 Sudoeste 0 -- -- 30
2019-04-02 18:00:00 18.6 24 Oeste 41 Oeste 0 -- -- 30
2019-04-02 17:00:00 18.3 23 Sudoeste 35 Sudoeste 0 -- -- 31
2019-04-02 16:00:00 17.5 21 Oeste 32 Sudoeste 0 -- -- 36
2019-04-02 15:00:00 17 15 Oeste 29 Oeste 0 -- -- 44
2019-04-02 14:00:00 17.4 12 Oeste 26 Sudoeste 0 -- -- 38
2019-04-02 13:00:00 15.5 14 Oeste 25 Oeste 0 -- -- 49
2019-04-02 12:00:00 13.2 15 Sudoeste 27 Sudoeste 0 -- -- 64
2019-04-02 11:00:00 12.7 12 Sur 19 Sudoeste 0 -- -- 68
2019-04-02 10:00:00 9.5 3 Sudeste 6 Sur 0.2 -- -- 79
2019-04-02 09:00:00 8.3 0 Calma 6 Norte 0 -- -- 81
2019-04-02 08:00:00 8.1 7 Oeste 23 Sudoeste 0 -- -- 78
2019-04-02 07:00:00 7.6 18 Sudoeste 25 Sudoeste 0 -- -- 80
2019-04-02 06:00:00 6.5 15 Sudoeste 19 Sudoeste 0 -- -- 82
2019-04-02 05:00:00 5.5 14 Sudoeste 19 Sudoeste 0 -- -- 84
2019-04-02 04:00:00 4.9 9 Sudoeste 11 Sudoeste 0 -- -- 86
2019-04-02 03:00:00 5.8 6 Sudoeste 12 Sudoeste 0 -- -- 85
2019-04-02 02:00:00 6.8 10 Sudoeste 16 Sudoeste 0 -- -- 80
2019-04-02 01:00:00 7.6 12 Sudoeste 15 Sur 0 -- -- 77
2019-04-02 00:00:00 7.9 10 Sudoeste 15 Sudoeste 0 -- -- 75
2019-04-01 23:00:00 10.3 5 Sur 14 Sur 0 -- -- 61
2019-04-01 22:00:00 10.5 2 Oeste 5 Oeste 0 -- -- 50
2019-04-01 21:00:00 12.4 3 Oeste 11 Oeste 0 -- -- 47
2019-04-01 20:00:00 17.7 6 Oeste 15 Oeste 0 -- -- 36
2019-04-01 19:00:00 19.2 9 Oeste 16 Oeste 0 -- -- 32
2019-04-01 18:00:00 19.8 4 Noroeste 16 Noroeste 0 -- -- 30
2019-04-01 17:00:00 19 4 Norte 17 Norte 0 -- -- 28
2019-04-01 16:00:00 19 6 Noroeste 19 Nordeste 0 -- -- 32
2019-04-01 15:00:00 16.7 8 Norte 19 Nordeste 0 -- -- 37
2019-04-01 14:00:00 16.4 8 Nordeste 22 Sur 0 -- -- 43
2019-04-01 13:00:00 14.7 6 Nordeste 18 Norte 0 -- -- 50
2019-04-01 12:00:00 12.5 9 Nordeste 18 Nordeste 0 -- -- 57
2019-04-01 11:00:00 10.5 7 Norte 12 Nordeste 0 -- -- 69
2019-04-01 10:00:00 7.8 5 Nordeste 12 Nordeste 0 -- -- 79
2019-04-01 09:00:00 3.8 4 Este 9 Norte 0 -- -- 88
2019-04-01 08:00:00 1 5 Norte 12 Norte 0 -- -- 97
2019-04-01 07:00:00 1.4 3 Norte 10 Nordeste 0 -- -- 94
2019-04-01 06:00:00 2.8 8 Nordeste 13 Nordeste 0 -- -- 94
2019-04-01 05:00:00 4 8 Nordeste 18 Nordeste 0 -- -- 87
2019-04-01 04:00:00 4 10 Nordeste 19 Nordeste 0 -- -- 89
2019-04-01 03:00:00 4.7 11 Norte 14 Norte 0 -- -- 90
2019-04-01 02:00:00 4 10 Este 14 Este 0 -- -- 91
2019-04-01 01:00:00 6 10 Este 15 Nordeste 0 -- -- 87
2019-04-01 00:00:00 6.3 10 Nordeste 15 Nordeste 0 -- -- 86
2019-03-31 23:00:00 8 10 Nordeste 15 Este 0 -- -- 81
2019-03-31 22:00:00 9.6 9 Este 20 Este 0 -- -- 72
2019-03-31 21:00:00 11.5 14 Sudeste 21 Sudeste 0 -- -- 64
2019-03-31 20:00:00 13.6 10 Este 18 Nordeste 0 -- -- 56
2019-03-31 19:00:00 15.8 8 Sudeste 22 Sudeste 0 -- -- 39
2019-03-31 18:00:00 15.4 20 Este 39 Este 0 -- -- 45
2019-03-31 17:00:00 15.3 28 Nordeste 39 Este 0 -- -- 53
2019-03-31 16:00:00 19.6 6 Noroeste 22 Nordeste 0 -- -- 28
2019-03-31 15:00:00 18.6 10 Norte 20 Noroeste 0 -- -- 30
2019-03-31 14:00:00 17.4 9 Norte 21 Norte 0 -- -- 34
2019-03-31 13:00:00 16.9 6 Nordeste 14 Este 0 -- -- 38
2019-03-31 12:00:00 16.1 3 Norte 13 Norte 0 -- -- 43
2019-03-31 11:00:00 13 6 Este 15 Nordeste 0 -- -- 54
2019-03-31 10:00:00 9.9 12 Nordeste 16 Nordeste 0 -- -- 56
2019-03-31 09:00:00 3.8 6 Este 11 Norte 0 -- -- 72
2019-03-31 08:00:00 1.2 5 Nordeste 10 Nordeste 0 -- -- 80
2019-03-31 07:00:00 1.7 5 Este 9 Este 0 -- -- 78
2019-03-31 06:00:00 2.3 5 Este 8 Este 0 -- -- 75
2019-03-31 05:00:00 2.6 5 Este 10 Este 0 -- -- 70
2019-03-31 03:00:00 2.7 3 Sur 8 Sudoeste 0 -- -- 65
2019-03-31 01:00:00 3.8 0 Calma 9 Sudeste 0 -- -- 66
2019-03-31 00:00:00 6.8 8 Sudeste 12 Sudeste 0 -- -- 54
2019-03-30 23:00:00 7.7 8 Sudeste 15 Sudeste 0 -- -- 49
2019-03-30 22:00:00 11.4 10 Sudeste 25 Sudeste 0 -- -- 39
2019-03-30 21:00:00 12.5 8 Norte 11 Norte 0 -- -- 37
2019-03-30 20:00:00 13.5 9 Norte 15 Norte 0 -- -- 35
2019-03-30 19:00:00 16.5 7 Norte 14 Nordeste 0 -- -- 30
2019-03-30 18:00:00 16.6 10 Noroeste 17 Noroeste 0 -- -- 29
2019-03-30 17:00:00 20.3 5 Este 17 Sudeste 0 -- -- 22
2019-03-30 16:00:00 19.1 8 Nordeste 27 Norte 0 -- -- 23
2019-03-30 15:00:00 19.6 8 Oeste 18 Sudoeste 0 -- -- 25
2019-03-30 14:00:00 19.1 5 Sudeste 15 Sudeste 0 -- -- 26
2019-03-30 13:00:00 18.3 6 Este 15 Nordeste 0 -- -- 27
2019-03-30 12:00:00 17.8 6 Noroeste 12 Noroeste 0 -- -- 28
2019-03-30 11:00:00 17.4 3 Nordeste 9 Sur 0 -- -- 30
2019-03-30 10:00:00 14.5 4 Sudeste 14 Sur 0 -- -- 43
2019-03-30 09:00:00 9.9 10 Sudeste 14 Sur 0 -- -- 55
2019-03-30 08:00:00 5.1 0 Calma 15 Sur 0 -- -- 70
2019-03-30 07:00:00 3.8 10 Sur 16 Sudeste 0 -- -- 75
2019-03-30 06:00:00 4.6 14 Sudeste 24 Sudeste 0 -- -- 73
2019-03-30 05:00:00 5.7 17 Sudeste 22 Sudeste 0 -- -- 68
2019-03-30 04:00:00 6.1 16 Sudeste 24 Sudeste 0 -- -- 67
2019-03-30 03:00:00 6.4 14 Sudeste 19 Sudeste 0 -- -- 63
2019-03-30 02:00:00 6.7 16 Sudeste 26 Sudeste 0 -- -- 56
2019-03-30 01:00:00 5.9 15 Sudeste 19 Sudeste 0 -- -- 51
2019-03-30 00:00:00 6.3 14 Sudeste 20 Sudeste 0 -- -- 49
2019-03-29 23:00:00 6.2 12 Sur 15 Sudeste 0 -- -- 46
2019-03-29 22:00:00 6.5 10 Sudeste 13 Sudeste 0 -- -- 48
2019-03-29 21:00:00 8.3 12 Sudeste 18 Sudeste 0 -- -- 41
2019-03-29 20:00:00 10 13 Sudeste 18 Sudeste 0 -- -- 39
2019-03-29 19:00:00 16.3 13 Sudeste 28 Sudeste 0 -- -- 27
2019-03-29 18:00:00 18.3 12 Sudeste 30 Sudeste 0 -- -- 23
2019-03-29 17:00:00 19.1 13 Este 31 Este 0 -- -- 23
2019-03-29 16:00:00 18.9 14 Este 27 Este 0 -- -- 22
2019-03-29 15:00:00 18.4 12 Este 29 Este 0 -- -- 24
2019-03-29 14:00:00 17.9 11 Sudeste 35 Sudeste 0 -- -- 24
2019-03-29 13:00:00 16.9 27 Sudeste 41 Sudeste 0 -- -- 25
2019-03-29 12:00:00 16.3 27 Sudeste 45 Sudeste 0 -- -- 25
2019-03-29 11:00:00 14.9 33 Sudeste 49 Sudeste 0 -- -- 29
2019-03-29 10:00:00 13.5 34 Sudeste 48 Sudeste 0 -- -- 34
2019-03-29 09:00:00 11.2 24 Sudeste 32 Sudeste 0 -- -- 39
2019-03-29 08:00:00 6.6 14 Sudeste 21 Sudeste 0 -- -- 48
2019-03-29 07:00:00 5 16 Sudeste 21 Sudeste 0 -- -- 48
2019-03-29 06:00:00 3.9 17 Sudeste 20 Sudeste 0 -- -- 51
2019-03-29 05:00:00 2.5 12 Sudeste 17 Sudeste 0 -- -- 54
2019-03-29 04:00:00 2.6 8 Sudeste 13 Sudeste 0 -- -- 55
2019-03-29 03:00:00 1 2 Sudeste 9 Sudeste 0 -- -- 69
2019-03-29 02:00:00 2 8 Sur 10 Sur 0 -- -- 68
2019-03-29 01:00:00 3.6 3 Este 10 Norte 0 -- -- 65
2019-03-29 00:00:00 4.3 4 Norte 9 Nordeste 0 -- -- 65
2019-03-28 23:00:00 8.9 8 Nordeste 17 Norte 0 -- -- 50
2019-03-28 22:00:00 11.2 10 Norte 18 Nordeste 0 -- -- 43
2019-03-28 21:00:00 8.8 0 Calma 10 Norte 0 -- -- 44
2019-03-28 20:00:00 12.6 9 Norte 15 Norte 0 -- -- 34
2019-03-28 19:00:00 16.6 12 Norte 21 Norte 0 -- -- 28
2019-03-28 18:00:00 18.8 11 Norte 22 Norte 0 -- -- 21
2019-03-28 17:00:00 18.8 14 Norte 22 Noroeste 0 -- -- 21
2019-03-28 16:00:00 19.2 10 Norte 27 Norte 0 -- -- 22
2019-03-28 15:00:00 18.8 10 Norte 23 Nordeste 0 -- -- 22
2019-03-28 14:00:00 17.8 9 Norte 23 Nordeste 0 -- -- 25
2019-03-28 13:00:00 16.2 12 Nordeste 21 Norte 0 -- -- 26
2019-03-28 12:00:00 14.1 12 Norte 22 Norte 0 -- -- 32
2019-03-28 11:00:00 11.3 13 Nordeste 21 Norte 0 -- -- 37
2019-03-28 10:00:00 7.5 12 Norte 19 Norte 0 -- -- 45
2019-03-28 09:00:00 4.3 11 Norte 15 Norte 0 -- -- 54
2019-03-28 08:00:00 2.8 2 Nordeste 4 Norte 0 -- -- 57
2019-03-28 07:00:00 -3.2 3 Norte 4 Norte 0 -- -- 71
2019-03-28 06:00:00 -3.1 0 Calma 10 Sudoeste 0 -- -- 73
2019-03-28 05:00:00 -1.8 2 Sudeste 10 Norte 0 -- -- 66
2019-03-28 04:00:00 1.4 9 Norte 12 Norte 0 -- -- 52
2019-03-28 03:00:00 0.9 6 Norte 8 Norte 0 -- -- 57
2019-03-28 02:00:00 0.9 0 Calma 5 Norte 0 -- -- 59
2019-03-28 01:00:00 4.7 4 Nordeste 22 Nordeste 0 -- -- 44
2019-03-28 00:00:00 6.9 9 Nordeste 28 Nordeste 0 -- -- 37
2019-03-27 23:00:00 8.3 18 Norte 32 Norte 0 -- -- 35
2019-03-27 22:00:00 9.6 18 Norte 26 Norte 0 -- -- 35
2019-03-27 21:00:00 10.2 12 Norte 31 Norte 0 -- -- 30
2019-03-27 20:00:00 13 18 Norte 32 Norte 0 -- -- 26
2019-03-27 19:00:00 16.7 20 Norte 33 Norte 0 -- -- 21
2019-03-27 18:00:00 19.2 18 Norte 28 Nordeste 0 -- -- 20
2019-03-27 17:00:00 19.7 14 Norte 28 Nordeste 0 -- -- 15
2019-03-27 16:00:00 19.3 14 Norte 28 Nordeste 0 -- -- 17
2019-03-27 15:00:00 18.5 15 Nordeste 22 Nordeste 0 -- -- 18
2019-03-27 14:00:00 16.8 14 Norte 23 Norte 0 -- -- 23
2019-03-27 13:00:00 14.7 8 Nordeste 15 Nordeste 0 -- -- 28
2019-03-27 12:00:00 12.6 6 Norte 12 Noroeste 0 -- -- 30
2019-03-27 11:00:00 10.9 5 Norte 16 Norte 0 -- -- 32
2019-03-27 10:00:00 8.4 8 Nordeste 15 Nordeste 0 -- -- 40
2019-03-27 09:00:00 4.2 10 Norte 14 Norte 0 -- -- 57
2019-03-27 08:00:00 1.3 2 Nordeste 5 Norte 0 -- -- 65
2019-03-27 07:00:00 -3.5 0 Calma 4 Norte 0 -- -- 78
2019-03-27 06:00:00 -3.5 3 Norte 6 Norte 0 -- -- 80
2019-03-27 05:00:00 -3 2 Norte 6 Norte 0 -- -- 75
2019-03-27 04:00:00 -1.3 3 Norte 8 Norte 0 -- -- 67
2019-03-27 03:00:00 0.7 6 Norte 19 Norte 0 -- -- 55
2019-03-27 02:00:00 1.4 2 Norte 18 Norte 0 -- -- 50
2019-03-27 01:00:00 3.5 9 Nordeste 24 Norte 0 -- -- 42
2019-03-27 00:00:00 5.5 17 Norte 27 Norte 0 -- -- 36
2019-03-26 23:00:00 7.2 20 Norte 30 Norte 0 -- -- 32
2019-03-26 22:00:00 8.4 17 Norte 28 Norte 0 -- -- 31
2019-03-26 21:00:00 10.7 20 Norte 31 Norte 0 -- -- 28
2019-03-26 20:00:00 13.1 23 Norte 34 Norte 0 -- -- 26
2019-03-26 19:00:00 16.5 22 Norte 40 Norte 0 -- -- 23
2019-03-26 18:00:00 19.5 30 Nordeste 45 Norte 0 -- -- 15
2019-03-26 17:00:00 20.3 30 Nordeste 45 Nordeste 0 -- -- 16
2019-03-26 16:00:00 20 23 Norte 41 Norte 0 -- -- 19
2019-03-26 15:00:00 18.9 23 Nordeste 36 Nordeste 0 -- -- 22
2019-03-26 14:00:00 17.1 22 Nordeste 35 Nordeste 0 -- -- 26
2019-03-26 13:00:00 15.4 15 Nordeste 28 Nordeste 0 -- -- 30
2019-03-26 12:00:00 12.8 15 Nordeste 29 Nordeste 0 -- -- 39
2019-03-26 11:00:00 10.7 12 Nordeste 21 Nordeste 0 -- -- 49
2019-03-26 10:00:00 6.9 10 Nordeste 17 Nordeste 0 -- -- 63
2019-03-26 09:00:00 6.1 3 Norte 4 Norte 0 -- -- 65
2019-03-26 08:00:00 -0.6 3 Sur 4 Sur 0 -- -- 81
2019-03-26 07:00:00 -4.1 0 Calma 3 Sudoeste 0 -- -- 92
2019-03-26 06:00:00 -4.1 0 Calma 4 Sudoeste 0 -- -- 91
2019-03-26 05:00:00 -3.4 2 Sudoeste 4 Sudoeste 0 -- -- 89
2019-03-26 04:00:00 -0.7 0 Calma 14 Nordeste 0 -- -- 77
2019-03-26 03:00:00 1.9 9 Nordeste 15 Nordeste 0 -- -- 72
2019-03-26 02:00:00 2.2 5 Nordeste 14 Nordeste 0 -- -- 70
2019-03-26 01:00:00 3.3 8 Nordeste 21 Norte 0 -- -- 65
2019-03-26 00:00:00 4.8 15 Norte 25 Nordeste 0 -- -- 61
2019-03-25 23:00:00 5.9 11 Nordeste 21 Nordeste 0 -- -- 61
2019-03-25 22:00:00 7 11 Norte 24 Norte 0 -- -- 60
2019-03-25 21:00:00 8.5 19 Norte 32 Norte 0 -- -- 55
2019-03-25 20:00:00 10.4 23 Norte 35 Norte 0 -- -- 50
2019-03-25 19:00:00 13.3 22 Norte 33 Norte 0 -- -- 43
2019-03-25 18:00:00 15.6 22 Norte 34 Norte 0 -- -- 34
2019-03-25 17:00:00 16.5 22 Norte 33 Norte 0 -- -- 29
2019-03-25 16:00:00 17.2 21 Norte 36 Norte 0 -- -- 31
2019-03-25 15:00:00 16.9 20 Norte 33 Norte 0 -- -- 32
2019-03-25 14:00:00 16.9 16 Norte 33 Nordeste 0 -- -- 38
2019-03-25 13:00:00 16.2 14 Norte 24 Norte 0 -- -- 43
2019-03-25 12:00:00 14.1 15 Norte 24 Norte 0 -- -- 49
2019-03-25 11:00:00 12.4 14 Norte 21 Nordeste 0 -- -- 55
2019-03-25 10:00:00 9.8 14 Nordeste 22 Norte 0 -- -- 58
2019-03-25 09:00:00 7.2 10 Norte 15 Nordeste 0 -- -- 67
2019-03-25 08:00:00 3.3 5 Nordeste 9 Nordeste 0 -- -- 79
2019-03-25 07:00:00 1.2 4 Nordeste 8 Norte 0 -- -- 86
2019-03-25 06:00:00 0.5 3 Nordeste 11 Noroeste 0 -- -- 87
2019-03-25 05:00:00 1.7 3 Este 9 Este 0 -- -- 83
2019-03-25 04:00:00 2.9 4 Nordeste 10 Este 0 -- -- 80
2019-03-25 03:00:00 4.4 5 Este 12 Nordeste 0 -- -- 73
2019-03-25 02:00:00 5.6 7 Nordeste 15 Nordeste 0 -- -- 68
2019-03-25 01:00:00 7.8 9 Nordeste 13 Nordeste 0 -- -- 61
2019-03-25 00:00:00 10.1 9 Norte 18 Norte 0 -- -- 55